EmailTwitter


Observations de surface / France / LFBP (07610)

Régions: Québec | Canada | États-Unis | Europe | France | UK | Ailleurs
Station
Affichage
Infos & localisation pour LFBP (07610) | Aide pour décoder les METARs

Observations prises le 2019-09-17 à 02H30 UTC à PONT-LONG-UZEIN/, FR (LFBP)

Température: 18.0 Celsius

Point de rosée: 17.0 Celsius

Humidité relative: 94%

Indice Humidex: 23.

Vents: Sud-est à 6 km/h ou 3 noeuds.

Pression au niveau moyen de la mer: 101.80 kilopascals.

Visibilité horizontale: 6.21 milles terrestres ou 9.94 kilomètres.

Observation METAR:

LFBP 170230Z AUTO 12003KT 9999 NCD 18/17 Q1018 NOSIG=